createdAt,value
2023-04-18T00:00:12.158Z,15.93
2023-04-18T00:01:15.250Z,13.60
2023-04-18T00:02:18.742Z,15.05
2023-04-18T00:03:22.127Z,14.30
2023-04-18T00:04:26.080Z,13.00
2023-04-18T00:05:30.356Z,14.07
2023-04-18T00:06:35.811Z,14.13
2023-04-18T00:07:38.361Z,14.02
2023-04-18T00:08:41.574Z,15.38
2023-04-18T00:09:45.756Z,16.50
2023-04-18T00:10:49.096Z,15.40
2023-04-18T00:11:51.391Z,16.77
2023-04-18T00:12:54.679Z,14.82
2023-04-18T00:13:57.502Z,13.07
2023-04-18T00:15:00.794Z,14.52
2023-04-18T00:16:03.150Z,15.15
2023-04-18T00:17:08.805Z,14.90
2023-04-18T00:18:11.250Z,14.95
2023-04-18T00:19:14.374Z,15.20
2023-04-18T00:20:16.543Z,15.98
2023-04-18T00:21:19.844Z,14.75
2023-04-18T00:22:22.290Z,16.42
2023-04-18T00:23:28.273Z,15.50
2023-04-18T00:24:30.591Z,15.00
2023-04-18T00:25:35.121Z,15.15
2023-04-18T00:26:37.304Z,15.38
2023-04-18T00:27:40.701Z,14.85
2023-04-18T00:28:42.909Z,15.93
2023-04-18T00:29:47.053Z,15.95
2023-04-18T00:30:51.733Z,16.27
2023-04-18T00:31:54.941Z,15.15
2023-04-18T00:32:57.131Z,16.52
2023-04-18T00:34:01.440Z,15.43
2023-04-18T00:35:04.321Z,16.55
2023-04-18T00:36:07.893Z,16.83
2023-04-18T00:37:10.098Z,15.15
2023-04-18T00:38:13.540Z,17.25
2023-04-18T00:39:15.976Z,15.70
2023-04-18T00:40:19.728Z,14.65
2023-04-18T00:41:27.412Z,15.45
2023-04-18T00:42:34.373Z,14.98
2023-04-18T00:43:37.194Z,15.77
2023-04-18T00:44:40.504Z,17.08
2023-04-18T00:45:42.750Z,19.23
2023-04-18T00:46:46.947Z,15.10
2023-04-18T00:47:49.073Z,15.52
2023-04-18T00:48:52.727Z,15.18
2023-04-18T00:49:55.288Z,15.90
2023-04-18T00:51:00.350Z,14.38
2023-04-18T00:52:02.971Z,16.55
2023-04-18T00:53:07.133Z,15.57
2023-04-18T00:54:11.455Z,15.48
2023-04-18T00:55:15.107Z,15.50
2023-04-18T00:56:17.854Z,15.68
2023-04-18T00:57:23.460Z,15.48
2023-04-18T00:58:26.833Z,15.35
2023-04-18T00:59:30.594Z,14.73
2023-04-18T01:00:32.854Z,16.63
2023-04-18T01:01:36.731Z,15.73
2023-04-18T01:02:39.856Z,16.25
2023-04-18T01:03:43.415Z,16.17
2023-04-18T01:04:46.339Z,16.90
2023-04-18T01:05:49.806Z,16.30
2023-04-18T01:06:52.285Z,16.17
2023-04-18T01:08:00.338Z,17.35
2023-04-18T01:09:05.384Z,16.90
2023-04-18T01:10:10.174Z,18.88
2023-04-18T01:11:12.648Z,19.33
2023-04-18T01:12:16.146Z,16.70
2023-04-18T01:13:20.959Z,17.63
2023-04-18T01:14:27.459Z,16.52
2023-04-18T01:15:29.723Z,17.58
2023-04-18T01:16:34.533Z,16.73
2023-04-18T01:17:36.961Z,19.90
2023-04-18T01:18:40.263Z,17.80
2023-04-18T01:19:44.698Z,19.88
2023-04-18T01:20:51.129Z,18.60
2023-04-18T01:21:55.305Z,18.08
2023-04-18T01:23:00.514Z,17.88
2023-04-18T01:24:11.119Z,18.67
2023-04-18T01:25:14.977Z,17.05
2023-04-18T01:26:17.749Z,17.95
2023-04-18T01:27:21.146Z,19.65
2023-04-18T01:28:23.370Z,18.02
2023-04-18T01:29:26.916Z,17.42
2023-04-18T01:30:29.221Z,18.83
2023-04-18T01:31:36.792Z,18.90
2023-04-18T01:32:39.372Z,19.52
2023-04-18T01:33:42.775Z,20.30
2023-04-18T01:34:45.251Z,19.42
2023-04-18T01:35:50.033Z,19.58
2023-04-18T01:36:52.220Z,18.48
2023-04-18T01:37:55.628Z,20.95
2023-04-18T01:38:58.336Z,19.05
2023-04-18T01:40:03.972Z,19.27
2023-04-18T01:41:06.383Z,21.52
2023-04-18T01:42:09.675Z,20.63
2023-04-18T01:43:13.206Z,20.63
2023-04-18T01:44:16.947Z,19.70
2023-04-18T01:45:22.416Z,19.23
2023-04-18T01:46:25.896Z,21.10
2023-04-18T01:47:28.169Z,19.50
2023-04-18T01:48:33.144Z,18.75
2023-04-18T01:49:35.491Z,19.13
2023-04-18T01:50:38.836Z,21.33
2023-04-18T01:51:42.262Z,20.40
2023-04-18T01:52:45.713Z,21.15
2023-04-18T01:53:48.172Z,23.30
2023-04-18T01:54:51.800Z,19.25
2023-04-18T01:55:57.684Z,20.60
2023-04-18T01:57:01.193Z,21.13
2023-04-18T01:58:03.464Z,20.83
2023-04-18T01:59:07.373Z,24.65
2023-04-18T02:00:11.243Z,19.80
2023-04-18T02:01:20.348Z,20.70
2023-04-18T02:02:22.854Z,23.30
2023-04-18T02:03:26.831Z,21.65
2023-04-18T02:04:29.404Z,21.10
2023-04-18T02:05:32.913Z,21.13
2023-04-18T02:06:35.262Z,20.73
2023-04-18T02:07:38.689Z,20.77
2023-04-18T02:08:41.116Z,18.85
2023-04-18T02:09:44.524Z,21.55
2023-04-18T02:10:47.315Z,19.95
2023-04-18T02:11:52.473Z,19.75
2023-04-18T02:12:54.836Z,20.20
2023-04-18T02:13:59.607Z,21.35
2023-04-18T02:15:01.857Z,22.02
2023-04-18T02:16:05.438Z,20.92
2023-04-18T02:17:07.739Z,20.90
2023-04-18T02:18:11.617Z,21.83
2023-04-18T02:19:15.379Z,22.02
2023-04-18T02:20:19.004Z,20.50
2023-04-18T02:21:22.022Z,19.70
2023-04-18T02:22:25.586Z,19.35
2023-04-18T02:23:28.549Z,21.10
2023-04-18T02:24:32.067Z,20.90
2023-04-18T02:25:34.597Z,22.08
2023-04-18T02:26:38.102Z,20.77
2023-04-18T02:27:41.938Z,20.38
2023-04-18T02:28:45.416Z,21.90
2023-04-18T02:29:47.632Z,20.40
2023-04-18T02:30:50.922Z,20.50
2023-04-18T02:31:53.136Z,20.52
2023-04-18T02:32:57.953Z,20.80
2023-04-18T02:34:00.054Z,21.95
2023-04-18T02:35:03.641Z,22.38
2023-04-18T02:36:06.765Z,21.08
2023-04-18T02:37:11.304Z,21.58
2023-04-18T02:38:15.833Z,21.75
2023-04-18T02:39:19.262Z,20.50
2023-04-18T02:40:21.828Z,22.33
2023-04-18T02:41:25.076Z,23.23
2023-04-18T02:42:37.426Z,21.73
2023-04-18T02:43:43.160Z,21.90
2023-04-18T02:44:45.511Z,22.20
2023-04-18T02:45:48.909Z,23.27
2023-04-18T02:46:51.191Z,20.50
2023-04-18T02:47:56.482Z,22.05
2023-04-18T02:48:59.152Z,23.83
2023-04-18T02:50:03.233Z,21.08
2023-04-18T02:51:08.011Z,23.58
2023-04-18T02:52:15.667Z,20.77
2023-04-18T02:53:17.840Z,23.30
2023-04-18T02:54:28.759Z,23.15
2023-04-18T02:55:41.746Z,25.55
2023-04-18T02:56:45.421Z,22.30
2023-04-18T02:58:18.187Z,21.50
2023-04-18T02:59:27.729Z,24.95
2023-04-18T03:00:59.536Z,24.33
2023-04-18T03:02:04.443Z,25.65
2023-04-18T03:03:09.072Z,22.52
2023-04-18T03:04:28.924Z,21.55
2023-04-18T03:05:39.526Z,22.63
2023-04-18T03:06:43.453Z,22.52
2023-04-18T03:07:45.670Z,24.08
2023-04-18T03:08:48.921Z,26.50
2023-04-18T03:09:51.519Z,26.52
2023-04-18T03:11:00.263Z,24.77
2023-04-18T03:12:05.382Z,25.02
2023-04-18T03:13:09.144Z,27.08
2023-04-18T03:14:11.689Z,25.85
2023-04-18T03:15:27.845Z,25.75
2023-04-18T03:16:33.376Z,25.63
2023-04-18T03:17:37.734Z,27.25
2023-04-18T03:18:40.930Z,26.40
2023-04-18T03:19:45.257Z,28.92
2023-04-18T03:20:49.582Z,26.98
2023-04-18T03:21:53.403Z,27.05
2023-04-18T03:22:55.712Z,28.15
2023-04-18T03:24:01.840Z,28.42
2023-04-18T03:25:04.860Z,30.42
2023-04-18T03:26:21.423Z,27.90
2023-04-18T03:27:23.612Z,28.75
2023-04-18T03:28:26.815Z,30.10
2023-04-18T03:29:29.182Z,30.55
2023-04-18T03:30:34.138Z,28.83
2023-04-18T03:31:37.517Z,30.85
2023-04-18T03:32:42.180Z,30.88
2023-04-18T03:33:45.601Z,32.90
2023-04-18T03:34:48.781Z,36.83
2023-04-18T03:35:51.280Z,29.13
2023-04-18T03:36:54.833Z,29.40
2023-04-18T03:37:57.137Z,31.63
2023-04-18T03:39:02.829Z,31.20
2023-04-18T03:40:05.954Z,33.08
2023-04-18T03:41:09.275Z,32.20
2023-04-18T03:42:13.297Z,33.10
2023-04-18T03:43:18.184Z,33.28
2023-04-18T03:44:20.486Z,35.53
2023-04-18T03:45:23.756Z,33.38
2023-04-18T03:46:27.488Z,34.50
2023-04-18T03:47:33.564Z,32.85
2023-04-18T03:48:37.499Z,33.42
2023-04-18T03:49:44.056Z,32.55
2023-04-18T03:50:47.612Z,32.75
2023-04-18T03:51:50.853Z,31.52
2023-04-18T03:52:54.681Z,32.75
2023-04-18T03:53:56.964Z,30.33
2023-04-18T03:55:14.065Z,32.63
2023-04-18T03:56:16.344Z,34.17
2023-04-18T03:57:26.484Z,33.17
2023-04-18T03:58:34.160Z,29.77
2023-04-18T03:59:38.132Z,31.33
2023-04-18T04:00:41.552Z,30.77
2023-04-18T04:01:47.644Z,30.52
2023-04-18T04:02:50.088Z,29.23
2023-04-18T04:03:57.009Z,33.40
2023-04-18T04:04:59.673Z,38.33
2023-04-18T04:06:06.006Z,29.98
2023-04-18T04:07:08.901Z,36.28
2023-04-18T04:08:13.048Z,31.10
2023-04-18T04:09:15.413Z,33.17
2023-04-18T04:10:20.116Z,32.40
2023-04-18T04:11:23.894Z,33.53
2023-04-18T04:12:28.009Z,31.95
2023-04-18T04:13:30.180Z,31.70
2023-04-18T04:14:33.812Z,32.35
2023-04-18T04:15:37.409Z,31.70
2023-04-18T04:16:45.948Z,35.58
2023-04-18T04:17:51.407Z,35.28
2023-04-18T04:18:55.773Z,33.88
2023-04-18T04:20:02.574Z,34.55
2023-04-18T04:21:07.694Z,37.72
2023-04-18T04:22:21.000Z,36.95
2023-04-18T04:23:25.480Z,37.05
2023-04-18T04:24:29.436Z,36.33
2023-04-18T04:25:34.236Z,35.78
2023-04-18T04:26:42.761Z,41.17
2023-04-18T04:27:49.732Z,34.92
2023-04-18T04:28:53.785Z,38.35
2023-04-18T04:29:58.990Z,38.63
2023-04-18T04:31:04.591Z,37.20
2023-04-18T04:32:08.089Z,35.15
2023-04-18T04:33:14.342Z,36.85
2023-04-18T04:34:16.923Z,36.88
2023-04-18T04:35:23.384Z,34.92
2023-04-18T04:36:27.136Z,38.08
2023-04-18T04:37:33.486Z,37.58
2023-04-18T04:38:54.731Z,33.10
2023-04-18T04:40:09.234Z,35.70
2023-04-18T04:41:29.532Z,36.30
2023-04-18T04:42:31.729Z,37.92
2023-04-18T04:43:42.823Z,40.50
2023-04-18T04:44:48.315Z,38.47
2023-04-18T04:45:52.903Z,39.40
2023-04-18T04:46:59.728Z,38.35
2023-04-18T04:48:07.892Z,36.35
2023-04-18T04:49:12.097Z,38.17
2023-04-18T04:50:15.958Z,35.65
2023-04-18T04:51:19.610Z,38.72
2023-04-18T04:52:22.246Z,36.88
2023-04-18T04:53:27.029Z,34.67
2023-04-18T04:54:30.446Z,35.95
2023-04-18T04:55:34.824Z,37.17
2023-04-18T04:56:42.395Z,36.95
2023-04-18T04:57:45.129Z,37.88
2023-04-18T04:59:20.784Z,38.85
2023-04-18T05:00:23.448Z,40.28
2023-04-18T05:01:27.262Z,38.28
2023-04-18T05:02:31.762Z,36.38
2023-04-18T05:03:36.500Z,36.88
2023-04-18T05:04:39.990Z,38.58
2023-04-18T05:05:44.392Z,39.28
2023-04-18T05:06:47.394Z,35.45
2023-04-18T05:07:51.526Z,37.45
2023-04-18T05:08:59.642Z,39.35
2023-04-18T05:10:03.193Z,38.88
2023-04-18T05:11:06.021Z,37.50
2023-04-18T05:12:12.123Z,32.78
2023-04-18T05:13:17.776Z,34.95
2023-04-18T05:14:22.857Z,36.42
2023-04-18T05:15:28.551Z,36.78
2023-04-18T05:16:32.967Z,36.25
2023-04-18T05:17:35.734Z,39.95
2023-04-18T05:18:41.606Z,37.92
2023-04-18T05:19:49.084Z,38.30
2023-04-18T05:20:51.880Z,38.20
2023-04-18T05:21:55.959Z,39.08
2023-04-18T05:22:59.625Z,38.08
2023-04-18T05:24:04.201Z,34.88
2023-04-18T05:25:09.629Z,33.38
2023-04-18T05:26:14.247Z,43.17
2023-04-18T05:27:18.718Z,39.55
2023-04-18T05:28:23.596Z,35.35
2023-04-18T05:29:26.058Z,35.85
2023-04-18T05:30:29.501Z,33.15
2023-04-18T05:31:32.432Z,37.00
2023-04-18T05:32:36.836Z,37.78
2023-04-18T05:33:39.746Z,32.80
2023-04-18T05:34:43.411Z,31.38
2023-04-18T05:35:45.868Z,33.00
2023-04-18T05:36:49.566Z,32.13
2023-04-18T05:37:51.879Z,32.92
2023-04-18T05:38:55.208Z,33.72
2023-04-18T05:40:01.062Z,33.88
2023-04-18T05:41:04.740Z,35.17
2023-04-18T05:42:06.841Z,33.97
2023-04-18T05:43:11.403Z,35.42
2023-04-18T05:44:16.320Z,31.40
2023-04-18T05:45:18.857Z,33.58
2023-04-18T05:46:22.289Z,34.55
2023-04-18T05:47:27.113Z,31.42
2023-04-18T05:48:31.062Z,32.15
2023-04-18T05:49:33.621Z,30.63
2023-04-18T05:50:36.954Z,30.48
2023-04-18T05:51:39.340Z,29.85
2023-04-18T05:52:42.901Z,32.72
2023-04-18T05:53:45.146Z,30.55
2023-04-18T05:54:48.398Z,29.70
2023-04-18T05:55:51.606Z,30.55
2023-04-18T05:56:57.199Z,31.17
2023-04-18T05:58:00.564Z,29.75
2023-04-18T05:59:05.116Z,31.85
2023-04-18T06:00:11.478Z,29.60
2023-04-18T06:01:18.580Z,28.20
2023-04-18T06:02:21.292Z,28.98
2023-04-18T06:03:25.041Z,29.42
2023-04-18T06:04:27.758Z,27.10
2023-04-18T06:05:31.569Z,27.02
2023-04-18T06:06:34.455Z,27.73
2023-04-18T06:07:37.764Z,28.60
2023-04-18T06:08:41.358Z,28.23
2023-04-18T06:09:43.502Z,28.85
2023-04-18T06:10:47.091Z,27.00
2023-04-18T06:11:52.074Z,29.75
2023-04-18T06:12:55.156Z,26.25
2023-04-18T06:13:57.571Z,23.65
2023-04-18T06:15:02.273Z,25.00
2023-04-18T06:16:05.027Z,25.23
2023-04-18T06:17:10.096Z,25.63
2023-04-18T06:18:12.538Z,28.80
2023-04-18T06:19:15.644Z,25.85
2023-04-18T06:20:17.816Z,26.10
2023-04-18T06:21:22.074Z,25.75
2023-04-18T06:22:24.353Z,25.38
2023-04-18T06:23:28.200Z,25.50
2023-04-18T06:24:31.336Z,25.42
2023-04-18T06:25:34.845Z,23.60
2023-04-18T06:26:38.349Z,23.92
2023-04-18T06:27:42.090Z,21.70
2023-04-18T06:28:45.658Z,22.52
2023-04-18T06:29:48.921Z,21.67
2023-04-18T06:30:54.021Z,25.73
2023-04-18T06:31:57.932Z,21.38
2023-04-18T06:33:01.696Z,22.05
2023-04-18T06:34:04.121Z,23.23
2023-04-18T06:35:08.080Z,21.50
2023-04-18T06:36:11.698Z,23.27
2023-04-18T06:37:15.003Z,22.40
2023-04-18T06:38:18.364Z,22.52
2023-04-18T06:39:21.220Z,26.00
2023-04-18T06:40:24.572Z,22.52
2023-04-18T06:41:26.853Z,22.55
2023-04-18T06:42:30.603Z,25.38
2023-04-18T06:43:37.878Z,22.08
2023-04-18T06:44:40.365Z,21.98
2023-04-18T06:45:43.720Z,25.00
2023-04-18T06:46:47.418Z,23.20
2023-04-18T06:47:51.530Z,20.15
2023-04-18T06:48:54.963Z,21.30
2023-04-18T06:49:58.492Z,20.92
2023-04-18T06:51:02.128Z,21.80
2023-04-18T06:52:08.212Z,21.73
2023-04-18T06:53:14.842Z,20.35
2023-04-18T06:54:21.250Z,20.63
2023-04-18T06:55:23.464Z,20.48
2023-04-18T06:56:26.942Z,21.08
2023-04-18T06:57:29.982Z,20.15
2023-04-18T06:58:33.117Z,20.00
2023-04-18T06:59:35.833Z,20.45
2023-04-18T07:00:38.780Z,19.63
2023-04-18T07:01:41.745Z,18.70
2023-04-18T07:02:46.591Z,19.75
2023-04-18T07:03:48.856Z,19.10
2023-04-18T07:04:51.995Z,21.25
2023-04-18T07:05:55.578Z,19.85
2023-04-18T07:06:57.671Z,19.90
2023-04-18T07:08:00.878Z,20.77
2023-04-18T07:09:03.303Z,20.00
2023-04-18T07:10:11.574Z,18.52
2023-04-18T07:11:15.712Z,19.30
2023-04-18T07:12:18.089Z,21.30
2023-04-18T07:13:22.399Z,18.58
2023-04-18T07:14:26.455Z,20.20
2023-04-18T07:15:30.133Z,18.17
2023-04-18T07:16:40.400Z,17.38
2023-04-18T07:18:20.554Z,19.50
2023-04-18T07:20:13.109Z,19.65
2023-04-18T07:24:15.159Z,18.95
2023-04-18T07:25:43.043Z,19.27
2023-04-18T07:27:12.614Z,17.80
2023-04-18T07:28:35.183Z,20.30
2023-04-18T07:30:13.701Z,17.25
2023-04-18T07:31:25.148Z,18.88
2023-04-18T07:32:42.804Z,17.85
2023-04-18T07:33:50.056Z,17.77
2023-04-18T07:34:52.953Z,17.40
2023-04-18T07:35:56.732Z,20.50
2023-04-18T07:36:59.219Z,17.35
2023-04-18T07:38:02.637Z,20.90
2023-04-18T07:39:09.750Z,19.27
2023-04-18T07:40:13.999Z,21.02
2023-04-18T07:41:17.212Z,20.73
2023-04-18T07:42:19.521Z,18.60
2023-04-18T07:43:22.916Z,19.60
2023-04-18T07:44:26.301Z,20.10
2023-04-18T07:45:28.629Z,19.45
2023-04-18T07:46:34.090Z,18.63
2023-04-18T07:47:37.657Z,19.30
2023-04-18T07:48:47.471Z,18.65
2023-04-18T07:49:54.269Z,18.90
2023-04-18T07:50:57.779Z,19.25
2023-04-18T07:52:01.029Z,19.48
2023-04-18T07:53:04.490Z,17.65
2023-04-18T07:54:07.672Z,18.15
2023-04-18T07:55:11.167Z,19.35
2023-04-18T07:56:14.357Z,16.17
2023-04-18T07:57:17.430Z,17.55
2023-04-18T07:58:19.602Z,15.93
2023-04-18T07:59:22.600Z,17.50
2023-04-18T08:00:24.897Z,16.60
2023-04-18T08:01:27.977Z,17.92
2023-04-18T08:02:31.136Z,17.85
2023-04-18T08:03:36.270Z,17.98
2023-04-18T08:04:39.684Z,17.48
2023-04-18T08:05:44.596Z,18.95
2023-04-18T08:06:46.746Z,16.08
2023-04-18T08:07:49.959Z,17.85
2023-04-18T08:08:55.450Z,17.58
2023-04-18T08:09:58.609Z,18.05
2023-04-18T08:11:00.850Z,17.75
2023-04-18T08:12:03.896Z,16.77
2023-04-18T08:13:08.189Z,18.15
2023-04-18T08:14:11.637Z,16.95
2023-04-18T08:15:14.314Z,18.60
2023-04-18T08:16:17.704Z,18.55
2023-04-18T08:17:21.196Z,19.05
2023-04-18T08:18:23.230Z,16.92
2023-04-18T08:19:26.331Z,16.90
2023-04-18T08:20:28.455Z,17.63
2023-04-18T08:21:33.290Z,18.67
2023-04-18T08:22:49.941Z,17.48
2023-04-18T08:24:02.246Z,17.00
2023-04-18T08:25:05.979Z,18.52
2023-04-18T08:26:09.157Z,18.27
2023-04-18T08:27:11.302Z,17.98
2023-04-18T08:28:14.752Z,18.30
2023-04-18T08:29:17.848Z,20.83
2023-04-18T08:30:19.985Z,18.20
2023-04-18T08:31:23.055Z,18.98
2023-04-18T08:32:26.497Z,17.02
2023-04-18T08:33:29.730Z,17.70
2023-04-18T08:34:33.574Z,17.30
2023-04-18T08:35:36.806Z,18.73
2023-04-18T08:36:41.393Z,17.70
2023-04-18T08:37:43.543Z,18.05
2023-04-18T08:38:46.740Z,17.35
2023-04-18T08:39:48.777Z,19.00
2023-04-18T08:40:51.866Z,21.40
2023-04-18T08:41:59.526Z,18.40
2023-04-18T08:43:05.025Z,19.17
2023-04-18T08:44:08.448Z,17.20
2023-04-18T08:45:13.867Z,17.90
2023-04-18T08:46:17.110Z,20.15
2023-04-18T08:47:20.714Z,17.52
2023-04-18T08:48:23.952Z,23.13
2023-04-18T08:49:26.192Z,18.90
2023-04-18T08:50:29.389Z,19.75
2023-04-18T08:51:33.945Z,19.10
2023-04-18T08:52:40.060Z,19.60
2023-04-18T08:53:45.017Z,20.40
2023-04-18T08:54:47.269Z,20.08
2023-04-18T08:55:55.022Z,20.88
2023-04-18T08:57:08.749Z,18.50
2023-04-18T08:58:12.408Z,18.67
2023-04-18T08:59:18.453Z,18.02
2023-04-18T09:00:20.720Z,19.70
2023-04-18T09:01:24.153Z,18.80
2023-04-18T09:02:42.584Z,19.50
2023-04-18T09:03:46.436Z,19.02
2023-04-18T09:04:52.830Z,18.88
2023-04-18T09:06:09.402Z,17.40
2023-04-18T09:07:14.410Z,17.67
2023-04-18T09:08:25.681Z,17.83
2023-04-18T09:09:29.068Z,18.85
2023-04-18T09:10:34.794Z,18.35
2023-04-18T09:11:36.856Z,17.67
2023-04-18T09:12:50.216Z,17.70
2023-04-18T09:13:56.070Z,17.77
2023-04-18T09:15:11.499Z,18.48
2023-04-18T09:16:14.549Z,17.02
2023-04-18T09:17:34.549Z,18.92
2023-04-18T09:18:36.876Z,17.50
2023-04-18T09:19:48.800Z,17.83
2023-04-18T09:20:51.855Z,17.05
2023-04-18T09:21:58.753Z,16.90
2023-04-18T09:23:03.689Z,16.67
2023-04-18T09:24:22.510Z,17.73
2023-04-18T09:25:27.372Z,16.95
2023-04-18T09:26:35.803Z,17.52
2023-04-18T09:27:38.899Z,17.88
2023-04-18T09:28:42.231Z,16.95
2023-04-18T09:29:46.959Z,16.98
2023-04-18T09:30:52.475Z,16.17
2023-04-18T09:32:03.379Z,17.25
2023-04-18T09:33:09.509Z,17.38
2023-04-18T09:34:24.824Z,17.75
2023-04-18T09:35:28.280Z,16.90
2023-04-18T09:36:31.437Z,16.65
2023-04-18T09:37:34.978Z,16.17
2023-04-18T09:38:41.480Z,17.63
2023-04-18T09:39:45.142Z,17.08
2023-04-18T09:40:48.208Z,17.20
2023-04-18T09:41:58.495Z,16.00
2023-04-18T09:43:01.667Z,17.10
2023-04-18T09:44:15.062Z,16.42
2023-04-18T09:45:18.524Z,16.60
2023-04-18T09:46:22.469Z,17.70
2023-04-18T09:47:25.792Z,16.75
2023-04-18T09:48:28.807Z,16.58
2023-04-18T09:49:30.862Z,17.10
2023-04-18T09:50:34.807Z,16.80
2023-04-18T09:51:38.364Z,15.88
2023-04-18T09:52:43.179Z,16.77
2023-04-18T09:53:47.538Z,16.90
2023-04-18T09:54:56.502Z,17.00
2023-04-18T09:56:00.067Z,14.95
2023-04-18T09:57:05.283Z,15.82
2023-04-18T09:58:08.825Z,16.00
2023-04-18T09:59:11.988Z,15.60
2023-04-18T10:00:24.075Z,15.10
2023-04-18T10:01:28.709Z,16.67
2023-04-18T10:02:38.230Z,15.75
2023-04-18T10:03:48.132Z,15.95
2023-04-18T10:04:51.636Z,15.00
2023-04-18T10:05:57.670Z,14.93
2023-04-18T10:07:01.191Z,17.45
2023-04-18T10:08:04.930Z,16.30
2023-04-18T10:09:09.519Z,16.77
2023-04-18T10:10:14.397Z,17.50
2023-04-18T10:11:18.523Z,16.27
2023-04-18T10:12:22.346Z,16.80
2023-04-18T10:13:27.667Z,17.05
2023-04-18T10:14:32.027Z,15.40
2023-04-18T10:15:35.760Z,15.75
2023-04-18T10:16:38.728Z,18.05
2023-04-18T10:17:56.044Z,14.30
2023-04-18T10:19:22.577Z,15.98
2023-04-18T10:20:27.340Z,14.40
2023-04-18T10:21:29.512Z,16.23
2023-04-18T10:22:32.956Z,16.52
2023-04-18T10:23:38.281Z,16.00
2023-04-18T10:24:48.153Z,15.65
2023-04-18T10:25:53.281Z,16.30
2023-04-18T10:26:55.967Z,16.35
2023-04-18T10:28:00.843Z,16.50
2023-04-18T10:29:04.005Z,17.98
2023-04-18T10:30:09.124Z,16.98
2023-04-18T10:31:12.561Z,18.45
2023-04-18T10:32:14.925Z,22.20
2023-04-18T10:33:32.221Z,18.58
2023-04-18T10:34:38.130Z,18.83
2023-04-18T10:35:56.805Z,16.58
2023-04-18T10:37:06.478Z,17.92
2023-04-18T10:38:17.021Z,17.75
2023-04-18T10:39:25.539Z,18.55
2023-04-18T10:40:34.132Z,17.38
2023-04-18T10:41:50.932Z,17.40
2023-04-18T10:42:59.344Z,15.98
2023-04-18T10:44:18.340Z,16.25
2023-04-18T10:45:22.699Z,17.02
2023-04-18T10:46:31.898Z,16.48
2023-04-18T10:47:36.413Z,15.07
2023-04-18T10:48:39.203Z,14.25
2023-04-18T10:49:55.050Z,15.55
2023-04-18T10:51:17.905Z,15.18
2023-04-18T10:52:19.868Z,16.52
2023-04-18T10:53:23.176Z,15.30
2023-04-18T10:54:30.833Z,14.52
2023-04-18T10:55:34.216Z,14.45
2023-04-18T10:56:37.837Z,15.43
2023-04-18T10:57:42.659Z,18.35
2023-04-18T10:58:51.978Z,14.38
2023-04-18T10:59:54.916Z,15.48
2023-04-18T11:00:58.419Z,16.25
2023-04-18T11:02:23.288Z,15.63
2023-04-18T11:03:34.208Z,16.48
2023-04-18T11:04:37.498Z,16.17
2023-04-18T11:05:40.648Z,15.05
2023-04-18T11:06:50.250Z,15.10
2023-04-18T11:07:53.993Z,14.73
2023-04-18T11:09:09.983Z,16.02
2023-04-18T11:10:14.314Z,14.68
2023-04-18T11:11:18.903Z,14.18
2023-04-18T11:12:23.157Z,15.30
2023-04-18T11:13:28.162Z,13.63
2023-04-18T11:14:41.375Z,14.27
2023-04-18T11:15:44.412Z,14.80
2023-04-18T11:16:46.528Z,16.50
2023-04-18T11:17:58.472Z,14.95
2023-04-18T11:19:00.982Z,14.57
2023-04-18T11:20:09.064Z,13.90
2023-04-18T11:21:12.193Z,16.08
2023-04-18T11:22:15.225Z,13.93
2023-04-18T11:23:22.837Z,15.80
2023-04-18T11:24:24.982Z,13.02
2023-04-18T11:25:30.451Z,13.20
2023-04-18T11:26:33.892Z,13.45
2023-04-18T11:27:38.344Z,14.05
2023-04-18T11:28:43.044Z,13.18
2023-04-18T11:29:45.315Z,13.23
2023-04-18T11:30:48.524Z,12.80
2023-04-18T11:31:51.777Z,13.27
2023-04-18T11:32:55.965Z,12.00
2023-04-18T11:33:59.167Z,12.95
2023-04-18T11:35:01.172Z,17.73
2023-04-18T11:36:04.412Z,13.07
2023-04-18T11:37:07.528Z,13.68
2023-04-18T11:38:12.784Z,12.85
2023-04-18T11:39:15.749Z,13.05
2023-04-18T11:40:18.924Z,12.50
2023-04-18T11:41:21.865Z,12.20
2023-04-18T11:42:27.665Z,12.00
2023-04-18T11:43:32.004Z,11.85
2023-04-18T11:44:36.314Z,13.93
2023-04-18T11:45:39.517Z,13.05
2023-04-18T11:46:42.304Z,12.18
2023-04-18T11:47:47.340Z,12.40
2023-04-18T11:48:50.889Z,13.13
2023-04-18T11:49:57.373Z,12.65
2023-04-18T11:51:01.073Z,12.75
2023-04-18T11:52:13.093Z,12.95
2023-04-18T11:53:15.215Z,14.07
2023-04-18T11:54:39.765Z,12.00
2023-04-18T11:55:42.830Z,12.02
2023-04-18T11:56:48.492Z,11.95
2023-04-18T11:57:53.141Z,12.80
2023-04-18T11:58:56.593Z,12.82
2023-04-18T12:00:01.628Z,12.68
2023-04-18T12:01:17.947Z,12.32
2023-04-18T12:02:22.504Z,13.05
2023-04-18T12:03:26.100Z,11.55
2023-04-18T12:04:28.486Z,11.10
2023-04-18T12:05:32.880Z,13.10
2023-04-18T12:06:48.600Z,11.93
2023-04-18T12:07:51.654Z,12.40
2023-04-18T12:08:58.958Z,11.88
2023-04-18T12:10:02.449Z,12.15
2023-04-18T12:11:05.814Z,14.85
2023-04-18T12:12:07.845Z,11.10
2023-04-18T12:13:11.001Z,10.77
2023-04-18T12:14:21.467Z,12.10
2023-04-18T12:15:27.247Z,11.80
2023-04-18T12:16:33.429Z,11.60
2023-04-18T12:17:38.411Z,12.48
2023-04-18T12:18:41.874Z,11.40
2023-04-18T12:19:47.438Z,10.90
2023-04-18T12:20:54.277Z,10.57
2023-04-18T12:21:57.691Z,10.27
2023-04-18T12:23:00.730Z,13.18
2023-04-18T12:24:13.427Z,11.15
2023-04-18T12:25:27.774Z,12.52
2023-04-18T12:26:31.484Z,12.45
2023-04-18T12:27:48.006Z,11.20
2023-04-18T12:28:53.696Z,11.05
2023-04-18T12:29:57.068Z,10.30
2023-04-18T12:31:00.301Z,11.20
2023-04-18T12:32:02.563Z,12.00
2023-04-18T12:33:06.636Z,12.45
2023-04-18T12:34:08.767Z,9.98
2023-04-18T12:35:11.799Z,9.50
2023-04-18T12:36:14.776Z,10.57
2023-04-18T12:37:16.763Z,10.40
2023-04-18T12:38:22.593Z,10.40
2023-04-18T12:39:25.973Z,11.15
2023-04-18T12:40:30.444Z,10.05
2023-04-18T12:41:32.533Z,9.60
2023-04-18T12:42:35.556Z,10.02
2023-04-18T12:43:38.630Z,11.93
2023-04-18T12:44:41.011Z,12.40
2023-04-18T12:45:46.545Z,10.80
2023-04-18T12:46:48.581Z,11.45
2023-04-18T12:47:53.190Z,10.13
2023-04-18T12:48:57.101Z,11.23
2023-04-18T12:49:59.082Z,10.65
2023-04-18T12:51:02.049Z,10.80
2023-04-18T12:52:04.271Z,10.20
2023-04-18T12:53:07.288Z,9.70
2023-04-18T12:54:09.263Z,10.77
2023-04-18T12:55:12.623Z,11.15
2023-04-18T12:56:16.548Z,9.88
2023-04-18T12:57:18.802Z,14.40
2023-04-18T12:58:21.823Z,10.18
2023-04-18T12:59:24.072Z,10.88
2023-04-18T13:00:29.215Z,10.07
2023-04-18T13:01:33.710Z,11.98
2023-04-18T13:02:39.458Z,10.35
2023-04-18T13:03:42.925Z,9.45
2023-04-18T13:04:46.095Z,8.77
2023-04-18T13:05:49.213Z,9.73
2023-04-18T13:06:51.255Z,9.90
2023-04-18T13:08:08.623Z,9.75
2023-04-18T13:09:17.878Z,9.80
2023-04-18T13:10:22.358Z,9.68
2023-04-18T13:11:28.417Z,10.18
2023-04-18T13:12:31.715Z,10.43
2023-04-18T13:13:35.809Z,9.65
2023-04-18T13:14:37.991Z,9.52
2023-04-18T13:15:41.341Z,10.02
2023-04-18T13:16:45.060Z,9.77
2023-04-18T13:17:48.683Z,9.48
2023-04-18T13:18:51.887Z,10.02
2023-04-18T13:19:54.113Z,11.10
2023-04-18T13:20:57.155Z,9.48
2023-04-18T13:21:59.197Z,9.13
2023-04-18T13:23:03.802Z,9.40
2023-04-18T13:24:06.546Z,9.88
2023-04-18T13:25:11.373Z,9.57
2023-04-18T13:26:13.584Z,9.35
2023-04-18T13:27:16.748Z,8.48
2023-04-18T13:28:19.792Z,10.18
2023-04-18T13:29:21.876Z,9.65
2023-04-18T13:30:25.090Z,9.15
2023-04-18T13:31:27.262Z,11.43
2023-04-18T13:32:32.228Z,10.02
2023-04-18T13:33:35.287Z,9.60
2023-04-18T13:34:39.338Z,9.32
2023-04-18T13:35:42.697Z,9.45
2023-04-18T13:36:44.764Z,9.75
2023-04-18T13:37:48.404Z,9.48
2023-04-18T13:38:51.526Z,8.43
2023-04-18T13:39:54.595Z,9.57
2023-04-18T13:41:08.896Z,9.77
2023-04-18T13:42:16.360Z,9.57
2023-04-18T13:43:18.694Z,10.93
2023-04-18T13:44:22.035Z,9.05
2023-04-18T13:45:25.391Z,10.20
2023-04-18T13:46:28.202Z,10.18
2023-04-18T13:47:33.007Z,9.00
2023-04-18T13:48:35.128Z,10.05
2023-04-18T13:49:38.522Z,8.90
2023-04-18T13:50:44.473Z,9.13
2023-04-18T13:51:46.584Z,10.85
2023-04-18T13:52:51.800Z,10.18
2023-04-18T13:53:54.031Z,10.35
2023-04-18T13:54:57.183Z,10.93
2023-04-18T13:56:01.249Z,11.25
2023-04-18T13:57:11.298Z,10.10
2023-04-18T13:58:14.402Z,9.90
2023-04-18T13:59:16.572Z,10.88
2023-04-18T14:00:20.421Z,8.70
2023-04-18T14:01:22.882Z,10.48
2023-04-18T14:02:26.311Z,11.50